Time;durP1;ratioP1;P1;durP2;ratioP2;P2;SDS_P1;SDS_P2;PMS_P1;PMS_P2;Temp;Humidity;BMP_temperature;BMP_pressure;BME280_temperature;BME280_humidity;BME280_pressure;Samples;Min_cycle;Max_cycle;Signal;HPM_P1;HPM_P2
2022/01/10 00:00:44;;;;;;;18.25;7.43;;;;;;;17.26;43.58;100554.56;5094202;28;20494;-78
2022/01/10 00:03:09;;;;;;;12.77;7.03;;;;;;;17.32;43.66;100561.41;5094613;28;20016;-78
2022/01/10 00:05:35;;;;;;;19.08;7.50;;;;;;;17.32;43.30;100561.41;5094013;28;20028;-78
2022/01/10 00:08:04;;;;;;;13.90;6.90;;;;;;;17.35;43.46;100574.47;5094113;28;20024;-78
2022/01/10 00:10:31;;;;;;;13.63;7.60;;;;;;;17.34;43.59;100579.19;5093947;28;20543;-78
2022/01/10 00:12:57;;;;;;;13.13;6.93;;;;;;;17.39;43.56;100583.63;5093968;28;20031;-78
2022/01/10 00:15:23;;;;;;;12.95;7.13;;;;;;;17.42;43.46;100569.88;5093945;28;20035;-78
2022/01/10 00:17:48;;;;;;;12.23;5.55;;;;;;;17.43;43.46;100571.47;5092697;28;20535;-78
2022/01/10 00:20:16;;;;;;;15.57;6.30;;;;;;;17.46;43.53;100576.31;5093885;28;20054;-78
2022/01/10 00:22:47;;;;;;;11.57;5.63;;;;;;;17.56;43.25;100569.38;5093845;28;20032;-78
2022/01/10 00:25:17;;;;;;;12.63;5.28;;;;;;;17.37;43.59;100577.66;5093799;28;20024;-78
2022/01/10 00:27:44;;;;;;;14.10;5.80;;;;;;;17.43;43.65;100582.53;5092467;28;20458;-78
2022/01/10 00:30:11;;;;;;;10.77;6.18;;;;;;;17.48;43.60;100589.75;5092107;28;20040;-78
2022/01/10 00:32:39;;;;;;;12.00;5.03;;;;;;;17.59;43.33;100601.78;5093678;28;20145;-78
2022/01/10 00:35:05;;;;;;;11.68;5.28;;;;;;;17.63;43.14;100593.59;5093587;28;20413;-78
2022/01/10 00:37:33;;;;;;;11.98;5.80;;;;;;;17.65;43.07;100600.34;5093789;28;20149;-78
2022/01/10 00:39:58;;;;;;;12.02;5.78;;;;;;;17.64;42.96;100601.50;5093486;28;20024;-79
2022/01/10 00:42:24;;;;;;;9.65;4.95;;;;;;;17.60;43.32;100599.84;5093412;28;20374;-78
2022/01/10 00:44:51;;;;;;;9.82;5.63;;;;;;;17.60;43.33;100600.63;5093439;28;20034;-78
2022/01/10 00:47:18;;;;;;;11.15;4.70;;;;;;;17.61;43.49;100606.97;5093395;28;20012;-78
2022/01/10 00:49:45;;;;;;;12.25;4.72;;;;;;;17.61;43.36;100605.00;5091971;28;20024;-78
2022/01/10 00:52:11;;;;;;;7.13;4.13;;;;;;;17.63;43.27;100599.91;5093270;28;20034;-78
2022/01/10 00:54:37;;;;;;;15.07;5.38;;;;;;;17.59;43.40;100601.78;5093256;28;20024;-78
2022/01/10 00:57:03;;;;;;;8.63;4.50;;;;;;;17.62;43.45;100601.09;5093236;28;20492;-78
2022/01/10 00:59:29;;;;;;;8.00;4.47;;;;;;;17.64;43.34;100606.25;5093112;28;20024;-78
2022/01/10 01:01:55;;;;;;;8.45;4.72;;;;;;;17.65;43.33;100605.88;5093147;28;20404;-78
2022/01/10 01:04:21;;;;;;;7.13;4.00;;;;;;;17.62;43.42;100597.53;5093108;28;20055;-78
2022/01/10 01:06:48;;;;;;;7.05;4.03;;;;;;;17.60;43.56;100606.16;5093037;28;20048;-79
2022/01/10 01:09:16;;;;;;;12.95;5.13;;;;;;;17.77;42.95;100599.44;5092986;28;20028;-79
2022/01/10 01:14:22;;;;;;;9.90;4.25;;;;;;;17.79;43.11;100619.22;5093026;28;20078;-78
2022/01/10 01:16:58;;;;;;;14.75;5.25;;;;;;;17.80;43.00;100629.09;5092363;28;20060;-78
2022/01/10 01:24:57;;;;;;;9.52;4.28;;;;;;;17.79;42.73;100644.09;5022622;28;20053;-78
2022/01/10 01:27:23;;;;;;;9.90;5.10;;;;;;;17.79;42.76;100638.56;5052614;28;20036;-78
2022/01/10 01:29:48;;;;;;;11.52;4.55;;;;;;;17.80;42.94;100642.13;5034496;28;20029;-78
2022/01/10 01:32:14;;;;;;;11.10;3.80;;;;;;;17.77;43.06;100643.66;5034731;28;20426;-78
2022/01/10 01:34:39;;;;;;;11.80;5.43;;;;;;;17.78;42.94;100642.50;5052484;28;20025;-77
2022/01/10 01:37:06;;;;;;;8.70;4.25;;;;;;;17.36;44.06;100653.38;5052489;28;20033;-77
2022/01/10 01:39:32;;;;;;;7.45;3.83;;;;;;;17.31;44.13;100651.72;5052416;28;20471;-78
2022/01/10 01:42:17;;;;;;;14.38;5.72;;;;;;;17.25;44.15;100644.06;5052450;28;20028;-77
2022/01/10 01:44:42;;;;;;;11.45;6.00;;;;;;;17.23;44.42;100649.13;5052453;28;20035;-77
2022/01/10 01:47:08;;;;;;;10.30;5.28;;;;;;;17.23;44.29;100654.66;5052338;28;20108;-77
2022/01/10 01:49:34;;;;;;;16.48;6.10;;;;;;;17.20;44.34;100656.19;5052201;28;20036;-77
2022/01/10 01:51:59;;;;;;;16.23;6.55;;;;;;;17.04;44.52;100667.25;5052361;28;20064;-77
2022/01/10 01:54:25;;;;;;;14.60;6.60;;;;;;;16.93;44.83;100671.75;5052291;28;20540;-78
2022/01/10 01:56:52;;;;;;;15.10;6.93;;;;;;;16.94;44.79;100665.06;5034525;28;20433;-78
2022/01/10 01:59:17;;;;;;;11.90;6.22;;;;;;;16.87;44.92;100665.69;5034445;28;20474;-78
2022/01/10 02:01:43;;;;;;;14.27;6.25;;;;;;;16.91;44.82;100660.25;5052321;28;20027;-78
2022/01/10 02:04:09;;;;;;;13.63;6.35;;;;;;;16.85;45.33;100667.19;5052160;28;20474;-78
2022/01/10 02:06:34;;;;;;;18.35;7.47;;;;;;;16.93;45.06;100666.22;5052235;28;20032;-78
2022/01/10 02:09:00;;;;;;;20.73;8.18;;;;;;;16.94;44.87;100667.03;5052206;28;20049;-77
2022/01/10 02:11:26;;;;;;;14.30;6.15;;;;;;;16.91;44.89;100663.00;5052109;28;20025;-77
2022/01/10 02:13:51;;;;;;;11.70;5.55;;;;;;;16.90;45.13;100661.41;5052165;28;20103;-77
2022/01/10 02:16:21;;;;;;;15.52;6.82;;;;;;;16.85;45.11;100661.66;5052200;28;20059;-77
2022/01/10 02:18:49;;;;;;;10.63;5.60;;;;;;;16.96;45.05;100667.47;5052384;28;20116;-77
2022/01/10 02:21:15;;;;;;;12.45;6.40;;;;;;;16.86;45.19;100660.53;5052178;28;20036;-77
2022/01/10 02:23:42;;;;;;;17.27;6.07;;;;;;;16.84;45.44;100660.88;5051874;28;20059;-78
2022/01/10 02:26:08;;;;;;;15.52;5.35;;;;;;;16.82;45.65;100660.44;5052055;28;20055;-77
2022/01/10 02:28:33;;;;;;;12.15;4.95;;;;;;;16.80;45.46;100665.50;5053245;28;20545;-77
2022/01/10 02:30:59;;;;;;;18.83;6.32;;;;;;;16.97;45.00;100664.34;5055820;28;20059;-77
2022/01/10 02:33:30;;;;;;;13.50;5.32;;;;;;;16.98;45.28;100668.69;5055789;28;20025;-77
2022/01/10 02:38:33;;;;;;;12.48;5.32;;;;;;;16.93;45.51;100671.75;5055770;28;20108;-77
2022/01/10 02:40:59;;;;;;;12.13;3.97;;;;;;;16.95;45.67;100682.41;5055618;28;20605;-77
2022/01/10 02:43:25;;;;;;;9.38;5.05;;;;;;;16.94;45.72;100678.88;5055578;28;20487;-78
2022/01/10 02:45:51;;;;;;;9.38;4.03;;;;;;;16.97;45.73;100677.34;5055586;28;20103;-77
2022/01/10 02:48:17;;;;;;;13.02;4.75;;;;;;;16.93;45.77;100685.53;5055500;28;20174;-77
2022/01/10 02:50:43;;;;;;;10.35;4.57;;;;;;;17.04;45.44;100686.59;5037416;28;20020;-77
2022/01/10 02:53:09;;;;;;;11.20;5.03;;;;;;;17.07;45.39;100688.63;5055415;28;20032;-77
2022/01/10 02:55:34;;;;;;;9.30;4.45;;;;;;;17.00;45.83;100684.88;5055350;28;20021;-77
2022/01/10 02:58:00;;;;;;;15.55;5.45;;;;;;;17.04;45.58;100689.34;5055411;28;20028;-78
2022/01/10 03:00:27;;;;;;;13.25;5.03;;;;;;;16.99;45.75;100684.09;5055237;28;20567;-77
2022/01/10 03:02:54;;;;;;;13.95;5.25;;;;;;;16.87;46.11;100681.44;5055283;28;20057;-77
2022/01/10 03:05:22;;;;;;;13.23;4.53;;;;;;;16.88;46.02;100677.53;5055074;28;20055;-78
2022/01/10 03:07:51;;;;;;;13.18;4.75;;;;;;;16.86;46.30;100679.84;5055176;28;20017;-77
2022/01/10 03:10:16;;;;;;;14.98;4.57;;;;;;;16.86;46.43;100686.16;5054945;28;20043;-77
2022/01/10 03:12:43;;;;;;;11.13;4.10;;;;;;;16.96;46.10;100681.25;5055130;28;20131;-77
2022/01/10 03:15:10;;;;;;;9.35;4.78;;;;;;;16.89;46.12;100679.91;5054925;28;20087;-77
2022/01/10 03:17:37;;;;;;;9.50;4.80;;;;;;;16.95;46.31;100680.47;5054976;28;20079;-77
2022/01/10 03:20:05;;;;;;;9.82;4.32;;;;;;;16.92;46.47;100683.91;5054933;28;20033;-77
2022/01/10 03:22:31;;;;;;;11.30;4.05;;;;;;;16.89;46.59;100681.88;5054559;28;20069;-77
2022/01/10 03:24:59;;;;;;;8.40;3.50;;;;;;;16.81;46.89;100682.88;5054838;28;20470;-77
2022/01/10 03:27:24;;;;;;;16.27;4.65;;;;;;;16.79;46.94;100685.19;5036888;28;20060;-77
2022/01/10 03:29:51;;;;;;;11.15;4.60;;;;;;;16.87;46.64;100679.47;5054668;28;20068;-77
2022/01/10 03:32:17;;;;;;;7.43;3.47;;;;;;;16.95;46.59;100676.91;5054719;28;20024;-77
2022/01/10 03:34:43;;;;;;;7.90;3.42;;;;;;;17.00;46.77;100684.88;5054586;28;20442;-77
2022/01/10 03:37:10;;;;;;;6.82;3.22;;;;;;;16.99;46.84;100686.06;5054615;28;20025;-78
2022/01/10 03:39:35;;;;;;;12.15;4.13;;;;;;;16.98;46.54;100689.97;5054209;28;20596;-77
2022/01/10 03:42:02;;;;;;;6.72;3.65;;;;;;;17.02;46.72;100694.44;5054475;28;20056;-77
2022/01/10 03:44:27;;;;;;;9.32;3.10;;;;;;;17.03;46.83;100696.03;5054471;28;20033;-78
2022/01/10 03:46:53;;;;;;;8.63;2.97;;;;;;;17.03;46.91;100698.00;5054316;28;20031;-77
2022/01/10 03:49:19;;;;;;;6.30;2.97;;;;;;;17.04;46.73;100700.38;5054392;28;20029;-77
2022/01/10 03:51:46;;;;;;;7.13;3.00;;;;;;;17.08;46.58;100704.06;5054228;28;20390;-78
2022/01/10 03:54:12;;;;;;;7.30;3.28;;;;;;;17.11;46.64;100708.03;5054276;28;20045;-77
2022/01/10 03:56:37;;;;;;;6.72;3.55;;;;;;;17.13;46.75;100706.53;5054195;28;20025;-77
2022/01/10 03:59:04;;;;;;;7.78;3.47;;;;;;;17.10;46.70;100706.44;5054221;28;20106;-77
2022/01/10 04:01:31;;;;;;;8.95;3.60;;;;;;;17.04;47.33;100708.66;5054105;28;20071;-77
2022/01/10 04:03:57;;;;;;;5.32;3.72;;;;;;;17.11;46.76;100710.81;5036175;28;20029;-77
2022/01/10 04:06:22;;;;;;;7.93;4.10;;;;;;;17.14;46.75;100712.84;5036143;28;20025;-77
2022/01/10 04:08:49;;;;;;;9.77;4.80;;;;;;;17.11;46.99;100710.81;5032767;28;20035;-77
2022/01/10 04:11:15;;;;;;;11.32;4.82;;;;;;;17.06;47.14;100716.59;5053785;28;20475;-77
2022/01/10 04:13:40;;;;;;;7.88;4.75;;;;;;;17.07;46.85;100713.47;5053818;28;20028;-77
2022/01/10 04:16:07;;;;;;;7.90;4.40;;;;;;;17.05;47.23;100713.03;5053870;28;20494;-77
2022/01/10 04:18:33;;;;;;;12.50;5.90;;;;;;;17.09;47.01;100715.88;5053767;28;20033;-78
2022/01/10 04:20:59;;;;;;;8.27;5.10;;;;;;;17.22;46.85;100708.28;5053445;28;20075;-77
2022/01/10 04:23:25;;;;;;;10.88;5.32;;;;;;;17.30;46.66;100704.53;5052082;28;20475;-78
2022/01/10 04:25:53;;;;;;;7.90;4.97;;;;;;;17.39;46.58;100692.16;5053554;28;20037;-77
2022/01/10 04:28:19;;;;;;;8.15;5.13;;;;;;;17.35;46.70;100693.22;5053600;28;20025;-77
2022/01/10 04:30:44;;;;;;;8.93;5.40;;;;;;;17.40;46.61;100688.22;5053480;28;20111;-78
2022/01/10 04:33:16;;;;;;;7.07;5.43;;;;;;;17.42;46.67;100696.13;5053483;28;20037;-77
2022/01/10 04:35:42;;;;;;;6.28;4.47;;;;;;;17.47;46.40;100690.34;5053444;28;20025;-77
2022/01/10 04:38:09;;;;;;;7.80;5.45;;;;;;;17.41;46.75;100691.78;5053474;28;20555;-78
2022/01/10 04:40:35;;;;;;;9.02;5.20;;;;;;;17.40;46.80;100688.22;5053329;28;20107;-77
2022/01/10 04:43:00;;;;;;;6.25;5.00;;;;;;;17.44;46.59;100691.06;5053334;28;20055;-77
2022/01/10 04:45:26;;;;;;;9.48;4.63;;;;;;;17.45;46.73;100689.88;5053226;28;20029;-77
2022/01/10 04:47:52;;;;;;;7.47;4.22;;;;;;;17.26;47.47;100684.34;5053231;28;20032;-78
2022/01/10 04:52:46;;;;;;;5.38;4.13;;;;;;;17.41;47.07;100684.28;5052525;28;20385;-77
2022/01/10 04:55:12;;;;;;;7.72;4.32;;;;;;;17.43;46.94;100686.69;5053115;28;20104;-77
2022/01/10 04:57:38;;;;;;;12.95;5.18;;;;;;;17.47;47.04;100687.59;5053135;28;20383;-77
2022/01/10 05:00:06;;;;;;;6.30;3.95;;;;;;;17.52;46.92;100687.28;5053024;28;20115;-77
2022/01/10 05:02:31;;;;;;;6.25;4.38;;;;;;;17.53;46.95;100686.13;5053009;28;20057;-77
2022/01/10 05:04:57;;;;;;;8.25;4.40;;;;;;;17.52;46.97;100683.72;5052924;28;20071;-77
2022/01/10 05:07:22;;;;;;;6.85;4.57;;;;;;;17.49;47.30;100688.03;5052938;28;20033;-77
2022/01/10 05:09:48;;;;;;;8.23;5.30;;;;;;;17.50;47.03;100686.84;5052888;28;20036;-77
2022/01/10 05:12:14;;;;;;;13.85;5.47;;;;;;;17.47;47.17;100693.91;5052868;28;20403;-77
2022/01/10 05:14:40;;;;;;;13.77;5.72;;;;;;;17.53;47.19;100696.38;5052763;28;20390;-77
2022/01/10 05:17:06;;;;;;;13.98;6.45;;;;;;;17.54;47.29;100693.28;5052878;28;20389;-77
2022/01/10 05:19:32;;;;;;;16.85;7.15;;;;;;;17.54;47.52;100698.78;5052754;28;20025;-77
2022/01/10 05:21:58;;;;;;;12.65;7.28;;;;;;;17.51;47.84;100715.28;5052728;28;20108;-77
2022/01/10 05:24:24;;;;;;;23.73;7.55;;;;;;;17.56;47.48;100709.47;5052500;28;20119;-77
2022/01/10 05:26:50;;;;;;;22.67;7.13;;;;;;;17.59;47.54;100720.59;5052684;28;20049;-77
2022/01/10 05:29:19;;;;;;;15.57;7.15;;;;;;;17.60;47.70;100710.34;5052673;28;20536;-78
2022/01/10 05:31:44;;;;;;;14.27;7.27;;;;;;;17.61;47.65;100712.78;5052599;28;20419;-77
2022/01/10 05:34:10;;;;;;;24.25;8.60;;;;;;;17.67;47.41;100710.50;5052552;28;20055;-77
2022/01/10 05:36:35;;;;;;;22.40;9.40;;;;;;;17.65;47.77;100699.81;5052600;28;20486;-77
2022/01/10 05:39:02;;;;;;;17.50;8.15;;;;;;;17.65;47.89;100715.59;5034596;28;20029;-77
2022/01/10 05:41:27;;;;;;;15.35;7.13;;;;;;;17.68;47.85;100710.16;5052081;28;20028;-78
2022/01/10 05:43:55;;;;;;;14.88;7.90;;;;;;;17.60;47.98;100707.56;5052342;28;20025;-78
2022/01/10 05:46:22;;;;;;;18.52;8.75;;;;;;;17.68;47.86;100710.16;5052362;28;20025;-77
2022/01/10 05:48:52;;;;;;;20.17;8.60;;;;;;;17.69;48.04;100720.06;5052373;28;20021;-78
2022/01/10 05:51:19;;;;;;;20.33;9.35;;;;;;;17.68;47.99;100726.75;5052262;28;20033;-78
2022/01/10 05:53:46;;;;;;;22.60;9.55;;;;;;;17.76;47.73;100727.72;5052279;28;20032;-78
2022/01/10 05:56:12;;;;;;;22.75;9.52;;;;;;;17.71;48.04;100730.75;5052385;28;20433;-78
2022/01/10 05:58:38;;;;;;;19.20;8.43;;;;;;;17.69;48.16;100730.31;5052287;28;20017;-78
2022/01/10 06:01:04;;;;;;;18.55;7.78;;;;;;;17.78;48.10;100732.88;5052203;28;20098;-77
2022/01/10 06:03:30;;;;;;;22.48;9.07;;;;;;;17.91;47.82;100734.34;5055045;28;20029;-78
2022/01/10 06:05:56;;;;;;;18.90;7.68;;;;;;;17.91;47.77;100732.41;5056354;28;20025;-78
2022/01/10 06:08:21;;;;;;;18.98;7.88;;;;;;;17.84;48.13;100734.22;5056219;28;20027;-78
2022/01/10 06:10:47;;;;;;;23.92;7.70;;;;;;;17.97;47.72;100735.66;5056133;28;20059;-79
2022/01/10 06:13:13;;;;;;;32.17;10.48;;;;;;;17.97;47.76;100739.22;5056091;28;20452;-78
2022/01/10 06:15:41;;;;;;;22.65;8.40;;;;;;;18.00;47.81;100748.78;5056174;28;20391;-78
2022/01/10 06:18:07;;;;;;;21.65;9.02;;;;;;;17.95;48.04;100749.84;5055969;28;20029;-77
2022/01/10 06:20:33;;;;;;;17.80;8.32;;;;;;;17.95;48.14;100757.34;5038095;28;20031;-78
2022/01/10 06:22:59;;;;;;;24.50;8.68;;;;;;;17.85;48.47;100767.00;5055814;28;20048;-78
2022/01/10 06:25:27;;;;;;;24.27;9.93;;;;;;;17.88;48.16;100771.81;5055979;28;20048;-78
2022/01/10 06:27:53;;;;;;;28.17;10.18;;;;;;;17.94;48.22;100772.31;5055902;28;20092;-78
2022/01/10 06:30:19;;;;;;;21.83;9.52;;;;;;;18.03;47.85;100776.47;5055784;28;20032;-77
2022/01/10 06:32:45;;;;;;;27.42;9.95;;;;;;;17.99;48.15;100777.59;5037734;28;20044;-78
2022/01/10 06:35:12;;;;;;;25.95;10.35;;;;;;;17.98;48.09;100775.94;5054574;28;20029;-78
2022/01/10 06:37:37;;;;;;;26.13;10.60;;;;;;;17.98;48.18;100774.00;5055621;28;20087;-78
2022/01/10 06:40:05;;;;;;;36.03;10.88;;;;;;;17.97;48.35;100777.91;5055683;28;20040;-78
2022/01/10 06:42:31;;;;;;;26.42;10.43;;;;;;;17.89;48.73;100775.38;5055457;28;20477;-78
2022/01/10 06:44:57;;;;;;;28.60;10.45;;;;;;;17.94;48.79;100772.31;5055472;28;20052;-78
2022/01/10 06:47:23;;;;;;;46.22;11.10;;;;;;;17.98;48.46;100781.47;5037580;28;20057;-77
2022/01/10 06:49:48;;;;;;;26.77;10.63;;;;;;;18.00;48.73;100782.75;5055293;28;20032;-77
2022/01/10 06:52:14;;;;;;;38.70;13.02;;;;;;;17.96;48.89;100789.34;5055416;28;20076;-78
2022/01/10 06:54:40;;;;;;;27.08;9.75;;;;;;;18.02;48.77;100790.66;5037551;28;20040;-77
2022/01/10 06:57:06;;;;;;;26.40;12.23;;;;;;;18.13;48.32;100788.91;5055406;28;20525;-77
2022/01/10 06:59:31;;;;;;;25.52;10.43;;;;;;;18.11;48.70;100782.97;5055066;28;20107;-78
2022/01/10 07:01:58;;;;;;;32.70;10.73;;;;;;;18.12;48.54;100789.28;5054874;28;20033;-78
2022/01/10 07:04:24;;;;;;;39.60;12.68;;;;;;;18.08;48.61;100792.00;5055250;28;20159;-78
2022/01/10 07:06:50;;;;;;;30.10;11.23;;;;;;;18.05;48.82;100802.97;5055157;28;20055;-78
2022/01/10 07:09:15;;;;;;;36.20;11.40;;;;;;;18.16;48.35;100812.28;5055115;28;20033;-78
2022/01/10 07:11:41;;;;;;;32.88;11.60;;;;;;;18.14;48.55;100820.16;5055105;28;20037;-77
2022/01/10 07:14:07;;;;;;;28.90;11.90;;;;;;;18.19;48.29;100828.94;5053849;28;20461;-78
2022/01/10 07:16:33;;;;;;;28.70;10.88;;;;;;;18.15;48.56;100828.09;5054953;28;20063;-78
2022/01/10 07:18:59;;;;;;;30.67;10.93;;;;;;;18.25;48.21;100843.31;5037007;28;20035;-77
2022/01/10 07:21:24;;;;;;;27.42;10.00;;;;;;;18.17;48.54;100845.13;5054785;28;20047;-77
2022/01/10 07:23:50;;;;;;;38.05;12.55;;;;;;;18.29;48.23;100856.06;5054582;28;20114;-76
2022/01/10 07:26:16;;;;;;;23.27;10.88;;;;;;;18.27;48.53;100844.53;5054801;28;20025;-77
2022/01/10 07:28:42;;;;;;;35.33;12.50;;;;;;;18.29;48.36;100850.53;5054780;28;20056;-77
2022/01/10 07:31:07;;;;;;;26.88;11.80;;;;;;;18.23;48.84;100845.63;5036701;28;20025;-77
2022/01/10 07:33:34;;;;;;;29.45;12.48;;;;;;;18.21;48.97;100845.19;5054673;28;20052;-77
2022/01/10 07:36:01;;;;;;;26.98;10.63;;;;;;;18.25;48.84;100848.84;5054581;28;20025;-77
2022/01/10 07:38:26;;;;;;;35.92;12.88;;;;;;;18.24;49.02;100848.03;5053498;28;20036;-78
2022/01/10 07:40:52;;;;;;;29.90;13.57;;;;;;;18.38;48.76;100860.56;5054252;28;20426;-78
2022/01/10 07:43:18;;;;;;;32.17;11.52;;;;;;;18.28;49.24;100861.94;5054293;28;20083;-77
2022/01/10 07:45:43;;;;;;;29.17;10.95;;;;;;;18.35;48.77;100859.31;5036506;28;20429;-78
2022/01/10 07:48:09;;;;;;;29.45;11.80;;;;;;;18.34;48.90;100854.16;5054160;28;20029;-78
2022/01/10 07:50:35;;;;;;;31.45;14.15;;;;;;;18.40;48.88;100853.50;5054326;28;20478;-79
2022/01/10 07:53:00;;;;;;;33.35;11.77;;;;;;;18.38;49.13;100858.63;5036249;28;20036;-78
2022/01/10 07:55:26;;;;;;;38.90;12.10;;;;;;;18.44;48.90;100859.09;5054150;28;20479;-77
2022/01/10 07:57:52;;;;;;;30.85;11.38;;;;;;;18.39;49.06;100851.09;5036288;28;20040;-78
2022/01/10 08:00:18;;;;;;;28.65;11.07;;;;;;;18.35;49.08;100864.06;5053281;28;20037;-78
2022/01/10 08:02:44;;;;;;;28.48;11.63;;;;;;;18.31;49.28;100858.47;5053111;28;20037;-78
2022/01/10 08:05:10;;;;;;;39.80;10.90;;;;;;;18.32;49.50;100867.56;5053901;28;20051;-78
2022/01/10 08:07:37;;;;;;;28.58;11.18;;;;;;;18.40;49.11;100872.06;5053914;28;20036;-78
2022/01/10 08:10:04;;;;;;;30.10;11.98;;;;;;;18.27;49.57;100872.19;5053130;28;20033;-77
2022/01/10 08:12:29;;;;;;;30.77;12.80;;;;;;;18.35;49.57;100875.13;5037117;28;20025;-78
2022/01/10 08:14:55;;;;;;;27.27;11.02;;;;;;;18.37;49.27;100889.41;5037469;28;20055;-79
2022/01/10 08:17:20;;;;;;;20.55;10.43;;;;;;;18.28;49.58;100890.38;5037646;28;20368;-78
2022/01/10 08:19:46;;;;;;;32.40;12.00;;;;;;;18.32;49.60;100892.44;5037176;28;20045;-79
2022/01/10 08:22:12;;;;;;;25.55;10.68;;;;;;;18.35;49.65;100886.97;5036662;28;20021;-78
2022/01/10 08:24:37;;;;;;;29.90;12.77;;;;;;;18.32;49.67;100890.47;5036976;28;20067;-78
2022/01/10 08:27:03;;;;;;;28.10;10.73;;;;;;;18.35;49.79;100892.50;5037095;28;20069;-78
2022/01/10 08:29:29;;;;;;;26.75;10.85;;;;;;;18.32;49.81;100903.50;5037065;28;20130;-79
2022/01/10 08:31:55;;;;;;;27.85;11.18;;;;;;;18.34;49.43;100907.50;5037106;28;20033;-78
2022/01/10 08:34:24;;;;;;;29.67;11.13;;;;;;;18.38;49.31;100907.59;5037723;28;20029;-78
2022/01/10 08:36:50;;;;;;;31.15;11.57;;;;;;;18.27;49.86;100908.16;5037682;28;20107;-78
2022/01/10 08:39:17;;;;;;;21.33;11.25;;;;;;;18.25;50.08;100913.25;5037363;28;20036;-78
2022/01/10 08:41:43;;;;;;;24.35;9.45;;;;;;;18.30;50.05;100923.25;5036965;28;20060;-78
2022/01/10 08:44:08;;;;;;;19.67;8.60;;;;;;;18.35;49.97;100925.72;5036701;28;20541;-78
2022/01/10 08:46:34;;;;;;;19.60;9.48;;;;;;;18.34;50.28;100929.63;5036426;28;20036;-78
2022/01/10 08:49:00;;;;;;;21.75;8.73;;;;;;;18.41;50.23;100931.78;5036517;28;20036;-78
2022/01/10 08:51:27;;;;;;;26.85;9.75;;;;;;;18.47;49.92;100936.66;5036509;28;21043;-78
2022/01/10 08:53:53;;;;;;;19.15;7.85;;;;;;;18.51;49.88;100945.84;5018991;28;20029;-78
2022/01/10 08:56:18;;;;;;;17.20;7.78;;;;;;;18.40;50.38;100949.53;5036456;28;21623;-78
2022/01/10 08:58:44;;;;;;;26.48;10.25;;;;;;;18.47;50.39;100950.50;5037027;28;20166;-78
2022/01/10 09:01:10;;;;;;;17.92;8.18;;;;;;;18.39;50.50;100947.94;5050182;28;20609;-77
2022/01/10 09:03:38;;;;;;;21.05;7.70;;;;;;;18.42;50.71;100953.53;5040472;28;20044;-78
2022/01/10 09:06:04;;;;;;;17.33;6.47;;;;;;;18.44;50.73;100951.22;5036517;28;20029;-77
2022/01/10 09:08:34;;;;;;;16.90;7.32;;;;;;;18.48;50.69;100956.81;5035608;28;20037;-77
2022/01/10 09:11:01;;;;;;;20.92;8.10;;;;;;;18.49;50.93;100952.91;5047269;28;20056;-80
2022/01/10 09:13:27;;;;;;;18.75;7.38;;;;;;;18.54;50.76;100960.94;5052891;28;20029;-77
2022/01/10 09:15:53;;;;;;;17.23;6.65;;;;;;;18.57;50.61;100949.91;5052408;28;20051;-77
2022/01/10 09:18:19;;;;;;;19.55;7.40;;;;;;;18.55;51.04;100970.81;5052819;28;20398;-77
2022/01/10 09:20:44;;;;;;;18.33;6.95;;;;;;;18.57;50.86;100963.75;5052641;28;20033;-77
2022/01/10 09:23:11;;;;;;;19.42;7.57;;;;;;;18.69;50.55;100971.16;5052469;28;20052;-78
2022/01/10 09:25:36;;;;;;;21.13;7.25;;;;;;;18.88;49.80;100972.34;5052562;28;20029;-79
2022/01/10 09:28:03;;;;;;;13.48;5.75;;;;;;;18.85;49.86;100969.16;5052013;28;20035;-79
2022/01/10 09:30:29;;;;;;;17.15;6.68;;;;;;;18.90;49.72;100964.50;5052084;28;20037;-77
2022/01/10 09:32:55;;;;;;;21.42;6.30;;;;;;;18.88;49.63;100964.03;5052139;28;20044;-77
2022/01/10 09:35:22;;;;;;;15.80;5.63;;;;;;;18.78;49.90;100959.88;5052054;28;20475;-78
2022/01/10 09:37:49;;;;;;;15.15;5.72;;;;;;;18.85;49.48;100966.38;5051627;28;20043;-78
2022/01/10 09:40:16;;;;;;;12.18;4.78;;;;;;;18.89;49.52;100965.63;5051932;28;20514;-78
2022/01/10 09:42:42;;;;;;;15.93;4.88;;;;;;;18.75;49.65;100961.44;5052458;28;20459;-78
2022/01/10 09:45:09;;;;;;;9.50;3.65;;;;;;;18.49;50.67;100958.44;5052155;28;20074;-77
2022/01/10 09:47:35;;;;;;;10.00;4.88;;;;;;;18.64;50.43;100965.09;5033949;28;20035;-79
2022/01/10 09:50:03;;;;;;;11.85;3.42;;;;;;;18.77;50.11;100975.69;5049380;28;20086;-76
2022/01/10 09:52:29;;;;;;;13.63;3.83;;;;;;;18.77;50.16;100978.47;5051965;28;20075;-80
2022/01/10 09:54:55;;;;;;;7.38;3.03;;;;;;;18.72;50.16;100978.75;5051869;28;20033;-77
2022/01/10 09:57:21;;;;;;;8.88;3.25;;;;;;;18.75;50.47;100980.81;5049572;28;20439;-77
2022/01/10 09:59:48;;;;;;;8.80;2.78;;;;;;;18.85;50.13;100976.66;5034267;28;20025;-77
2022/01/10 10:02:17;;;;;;;10.73;3.72;;;;;;;18.91;50.45;100989.03;5052168;28;20033;-79
2022/01/10 10:04:43;;;;;;;13.73;3.20;;;;;;;19.04;50.11;100995.22;5052324;28;20029;-81
2022/01/10 10:07:10;;;;;;;9.98;3.38;;;;;;;19.04;50.24;101001.59;5052131;28;20037;-79
2022/01/10 10:09:36;;;;;;;10.05;2.80;;;;;;;19.14;50.17;101000.19;5052217;28;20029;-78
2022/01/10 10:12:04;;;;;;;11.50;2.58;;;;;;;19.22;49.83;101001.16;5052009;28;20387;-79
2022/01/10 10:14:30;;;;;;;8.20;2.92;;;;;;;19.27;49.98;101009.97;5052182;28;20025;-76
2022/01/10 10:16:57;;;;;;;6.80;2.17;;;;;;;19.41;50.00;101004.69;5051971;28;20060;-78
2022/01/10 10:19:28;;;;;;;16.20;2.88;;;;;;;19.53;49.81;101000.16;5051050;28;20028;-78
2022/01/10 10:21:57;;;;;;;10.00;2.83;;;;;;;19.52;50.01;101015.19;5051183;28;20087;-77
2022/01/10 10:24:24;;;;;;;7.97;2.40;;;;;;;19.60;49.74;101019.72;5049159;28;20605;-78
2022/01/10 10:26:51;;;;;;;9.90;2.83;;;;;;;19.65;49.76;101033.28;5051739;28;20029;-79
2022/01/10 10:29:19;;;;;;;8.50;2.40;;;;;;;19.74;49.62;101025.53;5051664;28;20036;-72
2022/01/10 10:31:50;;;;;;;10.75;2.80;;;;;;;19.67;50.07;101028.97;5051812;28;20040;-78
2022/01/10 10:34:22;;;;;;;9.52;2.92;;;;;;;19.79;49.81;101039.06;5034226;28;20025;-79
2022/01/10 10:37:06;;;;;;;9.32;2.75;;;;;;;19.72;50.01;101038.16;5051896;28;20029;-78
2022/01/10 10:39:34;;;;;;;8.80;2.83;;;;;;;19.76;50.08;101041.81;5051631;28;20364;-78
2022/01/10 10:42:03;;;;;;;6.25;2.50;;;;;;;19.83;50.00;101033.63;5034849;28;20497;-79
2022/01/10 10:44:29;;;;;;;70.75;63.33;;;;;;;19.91;49.80;101044.47;5051038;28;20071;-78
2022/01/10 10:46:56;;;;;;;18.90;15.32;;;;;;;19.88;50.01;101049.97;5050554;28;20061;-80
2022/01/10 10:49:30;;;;;;;18.02;12.55;;;;;;;19.79;50.63;101057.69;5051875;28;20032;-77
2022/01/10 10:51:56;;;;;;;10.15;5.70;;;;;;;19.86;50.29;101050.31;5054469;28;20036;-77
2022/01/10 10:54:22;;;;;;;10.38;8.27;;;;;;;20.01;50.05;101050.56;5054473;28;20078;-77
2022/01/10 10:56:48;;;;;;;15.88;14.45;;;;;;;20.05;49.81;101046.69;5053951;28;20021;-77
2022/01/10 10:59:14;;;;;;;9.00;2.90;;;;;;;20.07;50.00;101057.41;5054319;28;20043;-78
2022/01/10 11:01:42;;;;;;;10.80;3.55;;;;;;;20.02;50.21;101060.47;5054317;28;20033;-77
2022/01/10 11:04:09;;;;;;;8.75;3.22;;;;;;;20.06;50.17;101051.06;5054338;28;20050;-78
2022/01/10 11:06:37;;;;;;;12.07;3.85;;;;;;;20.06;50.15;101051.06;5054409;28;20029;-78
2022/01/10 11:09:12;;;;;;;9.98;2.22;;;;;;;20.09;49.97;101055.06;5054223;28;20523;-77
2022/01/10 11:11:39;;;;;;;6.00;2.70;;;;;;;20.14;49.84;101051.97;5033974;28;20621;-78
2022/01/10 11:14:09;;;;;;;11.18;4.03;;;;;;;20.06;49.83;101064.13;5033982;28;20029;-79
2022/01/10 11:16:36;;;;;;;;;;;;;;;20.06;50.12;101069.69;5040446;28;20025;-79
2022/01/10 11:19:02;;;;;;;11.18;3.47;;;;;;;20.23;49.66;101066.41;5051086;28;19934;-78
2022/01/10 11:21:28;;;;;;;10.70;3.75;;;;;;;20.26;49.83;101067.66;5053350;28;20493;-79
2022/01/10 11:23:55;;;;;;;5.70;2.97;;;;;;;20.27;49.76;101060.94;5045280;28;20049;-79
2022/01/10 11:26:21;;;;;;;13.00;2.97;;;;;;;20.31;49.88;101059.00;5052579;28;20033;-77